Time;durP1;ratioP1;P1;durP2;ratioP2;P2;SDS_P1;SDS_P2;PMS_P1;PMS_P2;Temp;Humidity;BMP_temperature;BMP_pressure;BME280_temperature;BME280_humidity;BME280_pressure;Samples;Min_cycle;Max_cycle;Signal;HPM_P1;HPM_P2
2021/11/22 00:00:00;;;;;;;11.13;4.77;;;3.10;99.90;;;;;;5051759;28;20463;-84
2021/11/22 00:02:27;;;;;;;8.67;4.80;;;3.10;99.90;;;;;;5058471;28;20487;-83
2021/11/22 00:04:54;;;;;;;9.33;5.37;;;3.10;99.90;;;;;;5061670;28;20471;-84
2021/11/22 00:07:20;;;;;;;8.53;4.60;;;3.10;99.90;;;;;;5051652;28;20462;-84
2021/11/22 00:09:47;;;;;;;10.70;5.53;;;3.10;99.90;;;;;;5050541;28;20544;-84
2021/11/22 00:12:16;;;;;;;9.90;4.80;;;3.10;99.90;;;;;;5055922;28;20448;-83
2021/11/22 00:14:43;;;;;;;9.93;4.50;;;3.10;99.90;;;;;;5057708;28;20469;-83
2021/11/22 00:17:10;;;;;;;8.23;4.97;;;3.10;99.90;;;;;;5054760;28;20456;-83
2021/11/22 00:19:36;;;;;;;10.43;5.00;;;3.10;99.90;;;;;;5059922;28;20976;-83
2021/11/22 00:22:05;;;;;;;11.40;5.00;;;3.10;99.90;;;;;;5050054;28;20880;-83
2021/11/22 00:24:32;;;;;;;11.03;6.00;;;3.10;99.90;;;;;;5051026;28;20854;-83
2021/11/22 00:27:00;;;;;;;10.03;4.30;;;3.10;99.90;;;;;;5051728;28;20463;-84
2021/11/22 00:29:28;;;;;;;9.70;4.60;;;3.10;99.90;;;;;;5050357;28;20444;-84
2021/11/22 00:31:55;;;;;;;11.07;4.83;;;3.10;99.90;;;;;;5053048;28;20488;-85
2021/11/22 00:34:22;;;;;;;6.97;4.53;;;3.10;99.90;;;;;;5054766;28;20507;-82
2021/11/22 00:36:49;;;;;;;10.73;4.60;;;3.10;99.90;;;;;;5056162;28;20962;-83
2021/11/22 00:39:16;;;;;;;7.57;4.10;;;3.10;99.90;;;;;;5052364;28;20952;-83
2021/11/22 00:41:42;;;;;;;8.00;3.77;;;3.10;99.90;;;;;;5053553;28;20464;-84
2021/11/22 00:44:09;;;;;;;10.20;4.33;;;3.20;99.90;;;;;;5051197;28;20571;-84
2021/11/22 00:46:37;;;;;;;6.93;3.50;;;3.40;99.90;;;;;;5068298;28;20458;-83
2021/11/22 00:49:04;;;;;;;9.13;3.07;;;3.60;99.90;;;;;;5061695;28;20459;-83
2021/11/22 00:51:32;;;;;;;7.50;3.60;;;3.80;99.90;;;;;;5052158;28;20488;-83
2021/11/22 00:53:58;;;;;;;11.43;4.50;;;4.10;99.90;;;;;;5054181;28;20833;-83
2021/11/22 00:56:28;;;;;;;14.30;4.50;;;4.20;99.90;;;;;;5061463;28;20455;-83
2021/11/22 00:58:54;;;;;;;7.43;3.13;;;4.40;99.90;;;;;;5057322;28;20461;-83
2021/11/22 01:01:21;;;;;;;14.03;6.17;;;4.60;99.90;;;;;;5049765;28;20447;-85
2021/11/22 01:03:49;;;;;;;12.67;5.90;;;4.60;99.90;;;;;;5058891;28;21011;-83
2021/11/22 01:06:16;;;;;;;17.33;8.40;;;4.70;99.90;;;;;;5061057;28;20456;-84
2021/11/22 01:08:43;;;;;;;12.37;6.77;;;4.70;99.90;;;;;;5051146;28;20445;-84
2021/11/22 01:11:10;;;;;;;14.00;6.87;;;4.80;99.90;;;;;;5054516;28;20495;-82
2021/11/22 01:13:37;;;;;;;14.90;7.27;;;4.90;99.90;;;;;;5062396;28;20464;-82
2021/11/22 01:16:04;;;;;;;17.03;8.57;;;4.90;99.90;;;;;;5070079;28;20817;-83
2021/11/22 01:18:30;;;;;;;13.97;8.20;;;4.90;99.90;;;;;;5063873;28;20461;-84
2021/11/22 01:20:59;;;;;;;13.83;7.30;;;5.00;99.90;;;;;;5055790;28;20461;-82
2021/11/22 01:23:26;;;;;;;18.47;8.90;;;5.00;99.90;;;;;;5056625;28;20460;-82
2021/11/22 01:25:52;;;;;;;23.90;8.47;;;5.00;99.90;;;;;;5059558;28;20473;-84
2021/11/22 01:28:19;;;;;;;14.90;8.70;;;5.00;99.90;;;;;;5053602;28;20832;-82
2021/11/22 01:30:46;;;;;;;15.90;9.30;;;5.10;99.90;;;;;;5055717;28;20482;-83
2021/11/22 01:33:14;;;;;;;14.47;9.03;;;5.20;99.90;;;;;;5038847;28;20784;-83
2021/11/22 01:35:42;;;;;;;14.00;8.33;;;5.20;99.90;;;;;;5065026;28;20552;-83
2021/11/22 01:38:10;;;;;;;17.43;10.87;;;5.20;99.90;;;;;;5059882;28;20467;-83
2021/11/22 01:40:37;;;;;;;19.70;9.07;;;5.20;99.90;;;;;;5047324;28;20961;-84
2021/11/22 01:43:04;;;;;;;15.23;8.70;;;5.30;99.90;;;;;;5061453;28;20442;-85
2021/11/22 01:45:33;;;;;;;15.07;8.33;;;5.30;99.90;;;;;;5012862;28;1054472;-84
2021/11/22 01:48:00;;;;;;;17.90;8.90;;;5.40;99.90;;;;;;5041656;28;20303;-83
2021/11/22 01:50:29;;;;;;;15.83;8.87;;;5.40;99.90;;;;;;5052584;28;20462;-84
2021/11/22 01:52:56;;;;;;;13.83;9.43;;;5.40;99.90;;;;;;5044189;22;20510;-85
2021/11/22 01:55:27;;;;;;;16.70;9.73;;;5.40;99.90;;;;;;5032853;28;20451;-86
2021/11/22 01:57:55;;;;;;;14.13;8.57;;;5.40;99.90;;;;;;5035838;28;20450;-86
2021/11/22 02:00:26;;;;;;;15.23;10.40;;;5.50;99.90;;;;;;5034373;28;20450;-86
2021/11/22 02:02:53;;;;;;;16.07;9.90;;;5.50;99.90;;;;;;5024748;28;20530;-86
2021/11/22 02:05:21;;;;;;;11.80;7.87;;;5.60;99.90;;;;;;5039374;28;20982;-86
2021/11/22 02:07:48;;;;;;;17.47;9.30;;;5.60;99.90;;;;;;5036751;28;20453;-86
2021/11/22 02:10:15;;;;;;;14.30;9.67;;;5.70;99.90;;;;;;5039252;28;20536;-85
2021/11/22 02:12:45;;;;;;;18.07;9.70;;;5.60;99.90;;;;;;5038830;28;21038;-85
2021/11/22 02:15:13;;;;;;;13.10;9.30;;;5.60;99.90;;;;;;5042309;28;20461;-85
2021/11/22 02:17:43;;;;;;;14.03;8.80;;;5.60;99.90;;;;;;5035581;28;20688;-85
2021/11/22 02:20:14;;;;;;;14.20;9.60;;;5.70;99.90;;;;;;5041210;28;20453;-84
2021/11/22 02:22:45;;;;;;;14.20;9.77;;;5.80;99.90;;;;;;5030935;28;20523;-85
2021/11/22 02:25:14;;;;;;;12.10;8.53;;;5.70;99.90;;;;;;5035666;28;20456;-85
2021/11/22 02:27:42;;;;;;;13.23;7.90;;;5.80;99.90;;;;;;5017514;28;20493;-85
2021/11/22 02:30:11;;;;;;;12.67;9.97;;;5.90;99.90;;;;;;5014826;28;20457;-84
2021/11/22 02:32:40;;;;;;;14.73;9.10;;;5.80;99.90;;;;;;5014101;28;20854;-85
2021/11/22 02:35:10;;;;;;;14.43;9.93;;;5.80;99.90;;;;;;5028470;28;20515;-85
2021/11/22 02:37:38;;;;;;;14.17;8.60;;;5.80;99.90;;;;;;5035274;28;20457;-85
2021/11/22 02:40:06;;;;;;;13.80;10.00;;;5.80;99.90;;;;;;5034232;28;20467;-85
2021/11/22 02:42:40;;;;;;;16.97;10.97;;;5.90;99.90;;;;;;5035436;28;20828;-85
2021/11/22 02:45:07;;;;;;;16.10;9.83;;;5.90;99.90;;;;;;5034553;28;20511;-85
2021/11/22 02:47:34;;;;;;;11.43;8.70;;;5.90;99.90;;;;;;5034889;28;20455;-85
2021/11/22 02:50:01;;;;;;;15.27;9.97;;;6.00;99.90;;;;;;5033639;28;20709;-85
2021/11/22 02:52:28;;;;;;;14.03;9.23;;;6.00;99.90;;;;;;5034742;28;21013;-86
2021/11/22 02:54:56;;;;;;;19.63;9.13;;;5.90;99.90;;;;;;5035639;28;20977;-86
2021/11/22 02:57:23;;;;;;;17.10;10.10;;;6.00;99.90;;;;;;5031011;28;20470;-85
2021/11/22 02:59:50;;;;;;;15.23;9.10;;;6.00;99.90;;;;;;5033351;28;20455;-85
2021/11/22 03:02:16;;;;;;;13.83;9.63;;;6.00;99.90;;;;;;5036828;28;20457;-85
2021/11/22 03:04:44;;;;;;;13.60;9.30;;;6.00;99.90;;;;;;5038609;28;21029;-86
2021/11/22 03:07:13;;;;;;;11.40;8.43;;;6.10;99.90;;;;;;5040392;28;20522;-85
2021/11/22 03:09:40;;;;;;;12.33;9.10;;;6.00;99.90;;;;;;5038666;28;20541;-85
2021/11/22 03:12:12;;;;;;;14.20;9.00;;;6.00;99.90;;;;;;5039533;28;20483;-85
2021/11/22 03:14:39;;;;;;;13.27;8.73;;;6.00;99.90;;;;;;5041405;28;20475;-85
2021/11/22 03:17:07;;;;;;;16.20;9.70;;;6.00;99.90;;;;;;5043291;28;20838;-86
2021/11/22 03:19:34;;;;;;;16.43;8.43;;;6.00;99.90;;;;;;5042731;28;20455;-86
2021/11/22 03:22:01;;;;;;;12.83;8.57;;;6.00;99.90;;;;;;5043743;28;20881;-86
2021/11/22 03:24:28;;;;;;;11.33;8.80;;;6.10;99.90;;;;;;5042518;28;20475;-85
2021/11/22 03:26:55;;;;;;;15.50;9.23;;;6.10;99.90;;;;;;5043316;28;20465;-86
2021/11/22 03:29:24;;;;;;;12.70;8.50;;;6.20;99.90;;;;;;5044262;28;20454;-85
2021/11/22 03:31:51;;;;;;;10.03;7.63;;;6.20;99.90;;;;;;5043840;28;20479;-85
2021/11/22 03:34:17;;;;;;;10.70;8.10;;;6.20;99.90;;;;;;5043963;28;20476;-85
2021/11/22 03:36:44;;;;;;;14.00;8.80;;;6.20;99.90;;;;;;5043274;28;20543;-87
2021/11/22 03:39:17;;;;;;;13.27;8.20;;;6.20;99.90;;;;;;5042530;28;20475;-86
2021/11/22 03:41:44;;;;;;;12.93;7.73;;;6.20;99.90;;;;;;5024259;28;21035;-85
2021/11/22 03:44:12;;;;;;;10.57;7.13;;;6.30;99.90;;;;;;5027952;28;20473;-86
2021/11/22 03:46:44;;;;;;;9.37;7.13;;;6.40;99.90;;;;;;5043440;28;20509;-86
2021/11/22 03:49:11;;;;;;;9.77;6.73;;;6.30;99.90;;;;;;5043438;28;20846;-86
2021/11/22 03:51:39;;;;;;;10.50;6.97;;;6.20;99.90;;;;;;5048560;28;20555;-84
2021/11/22 03:54:06;;;;;;;12.30;7.87;;;6.30;99.90;;;;;;5047327;28;20557;-86
2021/11/22 03:56:33;;;;;;;11.17;8.00;;;6.20;99.90;;;;;;5019019;28;20551;-84
2021/11/22 03:59:00;;;;;;;10.97;7.30;;;6.30;99.90;;;;;;5020528;28;20458;-84
2021/11/22 04:01:27;;;;;;;10.17;7.00;;;6.30;99.90;;;;;;5036978;28;20465;-83
2021/11/22 04:03:55;;;;;;;11.10;7.00;;;6.30;99.90;;;;;;5037397;28;20477;-84
2021/11/22 04:06:22;;;;;;;10.33;6.43;;;6.20;99.90;;;;;;5039542;28;20462;-84
2021/11/22 04:08:49;;;;;;;7.77;5.90;;;6.20;99.90;;;;;;5040893;28;20971;-84
2021/11/22 04:11:15;;;;;;;9.47;6.33;;;6.20;99.90;;;;;;5041706;28;20462;-84
2021/11/22 04:13:43;;;;;;;8.60;6.20;;;6.20;99.90;;;;;;5044185;28;20470;-85
2021/11/22 04:16:10;;;;;;;10.27;5.70;;;6.20;99.90;;;;;;5043699;28;21033;-83
2021/11/22 04:18:37;;;;;;;7.40;5.60;;;6.30;99.90;;;;;;5044886;28;20456;-84
2021/11/22 04:21:05;;;;;;;12.37;6.90;;;6.40;99.90;;;;;;5041886;28;20461;-84
2021/11/22 04:23:34;;;;;;;8.30;6.03;;;6.40;99.90;;;;;;5043987;28;20507;-85
2021/11/22 04:26:01;;;;;;;7.60;5.70;;;6.40;99.90;;;;;;5041824;28;20450;-84
2021/11/22 04:28:28;;;;;;;10.80;6.80;;;6.40;99.90;;;;;;5041944;28;20464;-84
2021/11/22 04:30:55;;;;;;;11.10;6.20;;;6.50;99.90;;;;;;5040838;28;20642;-85
2021/11/22 04:33:21;;;;;;;10.17;7.67;;;6.40;99.90;;;;;;5041447;28;20491;-85
2021/11/22 04:35:48;;;;;;;8.03;5.87;;;6.40;99.90;;;;;;5040642;28;20538;-84
2021/11/22 04:38:16;;;;;;;10.10;6.20;;;6.30;99.90;;;;;;5041725;28;20460;-84
2021/11/22 04:40:43;;;;;;;9.30;6.57;;;6.30;99.90;;;;;;5040497;28;20460;-83
2021/11/22 04:43:10;;;;;;;9.17;7.20;;;6.20;99.90;;;;;;5038978;28;20564;-83
2021/11/22 04:45:37;;;;;;;8.93;7.17;;;6.20;99.90;;;;;;5034168;28;20460;-84
2021/11/22 04:48:06;;;;;;;10.93;8.60;;;6.10;99.90;;;;;;5033680;28;20452;-85
2021/11/22 04:50:34;;;;;;;10.70;7.80;;;6.00;99.90;;;;;;5032243;28;20452;-84
2021/11/22 04:53:03;;;;;;;11.30;8.40;;;6.00;99.90;;;;;;5032874;28;21049;-84
2021/11/22 04:55:32;;;;;;;10.83;7.50;;;6.00;99.90;;;;;;5033928;28;20951;-84
2021/11/22 04:57:59;;;;;;;9.90;7.73;;;6.00;99.90;;;;;;5033998;28;20459;-83
2021/11/22 05:00:26;;;;;;;10.77;8.17;;;6.00;99.90;;;;;;5020714;28;20901;-81
2021/11/22 05:02:53;;;;;;;11.00;8.50;;;5.80;99.90;;;;;;5014576;28;20475;-82
2021/11/22 05:05:24;;;;;;;11.37;8.10;;;5.60;99.90;;;;;;5035555;28;20446;-83
2021/11/22 05:07:52;;;;;;;12.03;8.70;;;5.50;99.90;;;;;;5036800;28;20467;-80
2021/11/22 05:10:21;;;;;;;9.23;7.37;;;5.40;99.90;;;;;;5036640;28;20467;-82
2021/11/22 05:12:49;;;;;;;11.73;9.00;;;5.50;99.90;;;;;;5037946;28;20486;-82
2021/11/22 05:15:16;;;;;;;11.77;9.60;;;5.40;99.90;;;;;;5038683;28;20459;-83
2021/11/22 05:17:43;;;;;;;16.23;8.60;;;5.50;99.90;;;;;;5038057;28;20796;-82
2021/11/22 05:20:10;;;;;;;12.30;9.17;;;5.60;99.90;;;;;;5037399;28;20455;-82
2021/11/22 05:22:37;;;;;;;11.07;8.77;;;5.70;99.90;;;;;;5035814;28;20468;-83
2021/11/22 05:25:04;;;;;;;11.67;9.40;;;5.70;99.90;;;;;;5036926;28;20529;-83
2021/11/22 05:27:31;;;;;;;12.30;9.07;;;5.70;99.90;;;;;;5037631;28;20485;-84
2021/11/22 05:30:00;;;;;;;14.30;9.40;;;5.80;99.90;;;;;;5036769;28;20456;-84
2021/11/22 05:32:27;;;;;;;10.10;6.70;;;5.90;99.90;;;;;;5033728;28;20484;-79
2021/11/22 05:34:56;;;;;;;8.47;6.87;;;8.50;99.90;;;;;;5034417;28;20448;-80
2021/11/22 05:37:23;;;;;;;7.93;4.90;;;9.20;99.90;;;;;;5034376;28;20457;-79
2021/11/22 05:39:50;;;;;;;6.97;4.50;;;9.60;99.90;;;;;;5034346;28;20530;-79
2021/11/22 05:42:17;;;;;;;8.25;5.53;;;9.70;99.90;;;;;;5031225;28;20502;-79
2021/11/22 05:44:44;;;;;;;7.60;5.27;;;9.80;99.90;;;;;;5033829;28;20231;-78
2021/11/22 05:47:13;;;;;;;6.80;5.03;;;9.90;99.90;;;;;;5033311;28;20461;-79
2021/11/22 05:49:41;;;;;;;9.23;5.73;;;10.20;99.90;;;;;;5033139;28;20545;-79
2021/11/22 05:52:09;;;;;;;7.43;4.77;;;9.80;99.90;;;;;;5032733;28;20998;-79
2021/11/22 05:54:44;;;;;;;9.30;6.57;;;10.10;99.90;;;;;;5043332;28;20478;-80
2021/11/22 05:57:11;;;;;;;9.23;7.30;;;9.20;99.90;;;;;;5036227;28;20507;-81
2021/11/22 05:59:38;;;;;;;8.80;7.10;;;8.60;99.90;;;;;;5029773;28;20468;-81
2021/11/22 06:02:05;;;;;;;10.83;8.23;;;8.00;99.90;;;;;;5026430;28;20449;-81
2021/11/22 06:04:34;;;;;;;10.27;8.43;;;7.40;99.90;;;;;;5027565;28;20483;-80
2021/11/22 06:07:01;;;;;;;14.00;8.90;;;6.80;99.90;;;;;;5030365;28;20464;-78
2021/11/22 06:09:28;;;;;;;9.97;8.30;;;6.40;99.90;;;;;;5030746;28;20493;-80
2021/11/22 06:11:54;;;;;;;13.37;9.77;;;6.30;99.90;;;;;;5031114;28;21007;-79
2021/11/22 06:14:21;;;;;;;12.93;9.30;;;6.10;99.90;;;;;;5030501;28;20972;-78
2021/11/22 06:16:48;;;;;;;12.30;10.50;;;6.10;99.90;;;;;;5030405;28;20811;-81
2021/11/22 06:19:15;;;;;;;13.87;9.50;;;5.90;99.90;;;;;;5020555;28;20522;-81
2021/11/22 06:21:43;;;;;;;13.57;10.33;;;5.90;99.90;;;;;;5028073;28;20449;-81
2021/11/22 06:24:13;;;;;;;14.60;10.90;;;5.90;99.90;;;;;;5024656;28;20481;-81
2021/11/22 06:26:41;;;;;;;12.73;10.17;;;5.70;99.90;;;;;;5038633;28;20533;-81
2021/11/22 06:29:09;;;;;;;10.83;8.60;;;5.70;99.90;;;;;;5004739;28;21032;-80
2021/11/22 06:31:36;;;;;;;13.33;10.40;;;5.60;99.90;;;;;;5025320;28;20464;-80
2021/11/22 06:34:03;;;;;;;13.23;9.37;;;5.50;99.90;;;;;;5030600;28;20486;-81
2021/11/22 06:36:30;;;;;;;13.10;9.90;;;5.50;99.90;;;;;;5032319;28;20453;-80
2021/11/22 06:38:58;;;;;;;13.47;10.20;;;5.50;99.90;;;;;;5031190;28;20491;-81
2021/11/22 06:41:25;;;;;;;16.43;12.47;;;5.50;99.90;;;;;;5033363;28;20570;-81
2021/11/22 06:43:52;;;;;;;14.87;12.07;;;5.30;99.90;;;;;;5032012;28;20472;-82
2021/11/22 06:46:19;;;;;;;14.20;10.90;;;5.40;99.90;;;;;;5031236;28;20451;-80
2021/11/22 06:48:46;;;;;;;13.20;9.90;;;5.40;99.90;;;;;;5022661;28;20946;-81
2021/11/22 06:51:13;;;;;;;14.10;12.17;;;5.50;99.90;;;;;;5023728;28;20480;-80
2021/11/22 06:53:39;;;;;;;16.40;11.50;;;5.60;99.90;;;;;;5024583;28;21022;-82
2021/11/22 06:56:08;;;;;;;13.07;11.40;;;5.60;99.90;;;;;;5025158;28;20447;-82
2021/11/22 06:58:35;;;;;;;14.33;10.70;;;5.60;99.90;;;;;;5027819;28;20464;-81
2021/11/22 07:01:03;;;;;;;11.33;9.90;;;5.60;99.90;;;;;;5024827;28;20461;-81
2021/11/22 07:03:30;;;;;;;11.90;10.17;;;5.70;99.90;;;;;;5025118;28;20470;-80
2021/11/22 07:05:57;;;;;;;10.80;9.10;;;5.80;99.90;;;;;;5023251;28;20542;-81
2021/11/22 07:08:25;;;;;;;11.70;9.40;;;5.60;99.90;;;;;;5025193;28;20460;-79
2021/11/22 07:10:52;;;;;;;12.20;8.90;;;5.60;99.90;;;;;;5027296;28;20514;-80
2021/11/22 07:13:20;;;;;;;11.30;8.70;;;5.50;99.90;;;;;;5023339;28;20505;-81
2021/11/22 07:15:47;;;;;;;11.03;9.00;;;5.50;99.90;;;;;;5026746;28;20477;-80
2021/11/22 07:18:14;;;;;;;15.10;10.97;;;5.60;99.90;;;;;;5032426;28;20810;-81
2021/11/22 07:20:45;;;;;;;15.73;10.90;;;5.50;99.90;;;;;;5028733;28;20834;-79
2021/11/22 07:23:13;;;;;;;12.53;9.57;;;5.50;99.90;;;;;;5031503;28;20459;-81
2021/11/22 07:25:40;;;;;;;11.47;9.00;;;5.50;99.90;;;;;;5027157;28;20458;-81
2021/11/22 07:28:07;;;;;;;15.13;10.20;;;5.50;99.90;;;;;;5026675;28;20459;-81
2021/11/22 07:30:36;;;;;;;15.67;10.87;;;5.60;99.90;;;;;;5025306;28;20465;-79
2021/11/22 07:33:03;;;;;;;18.13;9.30;;;5.60;99.90;;;;;;5032092;28;20501;-82
2021/11/22 07:35:30;;;;;;;14.97;11.47;;;5.60;99.90;;;;;;5020898;28;20528;-80
2021/11/22 07:37:57;;;;;;;12.87;11.03;;;5.70;99.90;;;;;;5028132;28;20456;-81
2021/11/22 07:40:25;;;;;;;16.30;11.50;;;5.60;99.90;;;;;;5023113;28;20461;-79
2021/11/22 07:42:53;;;;;;;11.93;9.73;;;5.50;99.90;;;;;;5028963;28;20461;-81
2021/11/22 07:45:20;;;;;;;16.93;11.63;;;5.60;99.90;;;;;;5021869;28;20448;-80
2021/11/22 07:47:49;;;;;;;14.33;10.57;;;5.50;99.90;;;;;;5031976;28;20464;-80
2021/11/22 07:50:16;;;;;;;10.57;9.33;;;5.60;99.90;;;;;;5025956;28;20460;-83
2021/11/22 07:52:43;;;;;;;17.50;10.77;;;5.50;99.90;;;;;;5019398;28;20494;-82
2021/11/22 07:55:10;;;;;;;16.00;12.23;;;5.40;99.90;;;;;;5038252;28;20454;-81
2021/11/22 07:57:37;;;;;;;17.00;10.87;;;5.30;99.90;;;;;;5039126;28;20469;-79
2021/11/22 08:00:05;;;;;;;14.50;11.30;;;5.40;99.90;;;;;;5026843;28;20455;-80
2021/11/22 08:02:32;;;;;;;13.73;9.47;;;5.40;99.90;;;;;;5026828;28;20443;-80
2021/11/22 08:05:00;;;;;;;13.03;9.40;;;5.30;99.90;;;;;;5018024;28;20448;-80
2021/11/22 08:07:27;;;;;;;11.10;9.10;;;5.40;99.90;;;;;;5029337;28;20459;-78
2021/11/22 08:09:57;;;;;;;15.77;11.77;;;5.50;99.90;;;;;;5032461;28;20541;-77
2021/11/22 08:12:28;;;;;;;13.53;11.30;;;5.40;99.90;;;;;;5023765;28;20840;-77
2021/11/22 08:14:58;;;;;;;13.37;10.10;;;5.30;99.90;;;;;;5026677;28;20516;-78
2021/11/22 08:17:26;;;;;;;13.43;9.90;;;5.20;99.90;;;;;;5025454;28;20475;-78
2021/11/22 08:19:53;;;;;;;14.63;10.30;;;5.30;99.90;;;;;;5023683;28;20469;-80
2021/11/22 08:22:22;;;;;;;14.33;11.10;;;5.30;99.90;;;;;;5025389;28;20460;-81
2021/11/22 08:24:51;;;;;;;14.70;11.40;;;5.40;99.90;;;;;;5033322;28;20437;-79
2021/11/22 08:27:19;;;;;;;20.50;13.67;;;5.50;99.90;;;;;;5027741;28;20470;-80
2021/11/22 08:29:46;;;;;;;21.40;13.97;;;5.50;99.90;;;;;;5033924;28;20454;-79
2021/11/22 08:32:13;;;;;;;22.40;12.20;;;5.50;99.90;;;;;;5028566;28;21322;-81
2021/11/22 08:34:40;;;;;;;18.03;13.33;;;5.60;99.90;;;;;;5030771;28;20530;-79
2021/11/22 08:37:07;;;;;;;20.47;13.87;;;5.60;99.90;;;;;;5010456;28;20464;-80
2021/11/22 08:39:36;;;;;;;15.53;11.33;;;5.70;99.90;;;;;;5034200;28;20463;-79
2021/11/22 08:42:03;;;;;;;17.97;11.87;;;5.80;99.90;;;;;;5031249;28;20958;-79
2021/11/22 08:44:30;;;;;;;18.10;12.10;;;5.90;99.90;;;;;;5033590;28;20472;-79
2021/11/22 08:46:57;;;;;;;17.50;10.57;;;5.70;99.90;;;;;;5033716;28;20946;-80
2021/11/22 08:49:24;;;;;;;16.47;12.00;;;5.90;99.90;;;;;;5021812;28;20496;-80
2021/11/22 08:51:51;;;;;;;19.57;12.90;;;6.00;99.90;;;;;;5029068;28;20450;-79
2021/11/22 08:54:18;;;;;;;16.60;11.10;;;5.80;99.90;;;;;;5022855;28;20549;-79
2021/11/22 08:56:47;;;;;;;17.97;12.50;;;5.90;99.90;;;;;;5028122;28;20455;-78
2021/11/22 08:59:14;;;;;;;24.97;13.77;;;6.00;99.90;;;;;;5030289;28;20455;-79
2021/11/22 09:01:41;;;;;;;19.53;12.10;;;6.10;99.90;;;;;;5029611;28;20460;-78
2021/11/22 09:04:08;;;;;;;16.40;12.17;;;6.10;99.90;;;;;;5029300;28;20476;-78
2021/11/22 09:06:35;;;;;;;19.93;14.43;;;6.00;99.90;;;;;;5031578;28;20459;-78
2021/11/22 09:09:04;;;;;;;26.07;14.40;;;5.80;99.90;;;;;;5012638;28;20453;-78
2021/11/22 09:11:31;;;;;;;21.60;15.47;;;5.80;99.90;;;;;;5028708;28;20456;-79
2021/11/22 09:13:59;;;;;;;20.70;14.67;;;5.60;99.90;;;;;;5023166;28;20492;-80
2021/11/22 09:16:28;;;;;;;20.13;15.43;;;5.80;99.90;;;;;;5026605;28;20470;-80
2021/11/22 09:18:55;;;;;;;22.77;15.90;;;5.70;99.90;;;;;;5028978;28;20464;-79
2021/11/22 09:21:22;;;;;;;20.50;13.77;;;5.50;99.90;;;;;;5023363;28;20470;-79
2021/11/22 09:23:49;;;;;;;24.10;15.50;;;5.50;99.90;;;;;;5030088;28;20561;-79
2021/11/22 09:26:17;;;;;;;21.80;14.70;;;5.60;99.90;;;;;;5029448;28;20464;-79
2021/11/22 09:28:44;;;;;;;23.90;16.40;;;5.80;99.90;;;;;;5028264;28;20482;-82
2021/11/22 09:31:15;;;;;;;28.63;17.97;;;6.00;99.90;;;;;;5026273;28;20459;-80
2021/11/22 09:33:44;;;;;;;33.23;19.63;;;5.80;99.90;;;;;;5028188;28;20600;-79
2021/11/22 09:36:11;;;;;;;23.53;15.90;;;5.70;99.90;;;;;;5026896;28;20530;-79
2021/11/22 09:38:37;;;;;;;24.40;15.13;;;5.80;99.90;;;;;;5027283;28;20449;-79
2021/11/22 09:41:05;;;;;;;23.40;14.60;;;6.10;99.90;;;;;;5026240;28;20558;-80
2021/11/22 09:43:32;;;;;;;20.47;13.00;;;6.40;99.90;;;;;;5028579;28;20852;-80
2021/11/22 09:45:59;;;;;;;18.77;10.80;;;6.40;99.90;;;;;;5026983;28;20550;-81
2021/11/22 09:48:27;;;;;;;15.53;11.40;;;6.60;99.90;;;;;;5026477;28;20463;-80
2021/11/22 09:50:56;;;;;;;13.30;8.47;;;6.50;99.90;;;;;;5016315;28;20462;-79
2021/11/22 09:54:04;;;;;;;13.10;9.50;;;6.50;99.90;;;;;;5028014;28;20494;-82
2021/11/22 09:56:33;;;;;;;13.37;8.63;;;6.70;99.90;;;;;;5019726;28;20874;-80
2021/11/22 09:59:00;;;;;;;13.23;9.60;;;6.90;99.90;;;;;;5036940;28;20459;-80
2021/11/22 10:01:34;;;;;;;11.67;8.80;;;7.00;99.90;;;;;;5029101;28;20456;-81
2021/11/22 10:04:04;;;;;;;13.77;11.07;;;6.90;99.90;;;;;;5022162;28;21360;-80
2021/11/22 10:06:46;;;;;;;16.60;12.33;;;7.00;99.90;;;;;;5025667;28;20518;-79
2021/11/22 10:09:39;;;;;;;15.80;11.77;;;7.00;99.90;;;;;;5023293;28;20456;-82
2021/11/22 10:12:09;;;;;;;20.23;13.67;;;7.20;99.90;;;;;;5023233;28;20550;-80
2021/11/22 10:14:38;;;;;;;19.83;13.10;;;7.20;99.90;;;;;;5020859;28;20519;-79
2021/11/22 10:17:23;;;;;;;17.63;12.63;;;7.30;99.90;;;;;;5028453;28;20442;-79
2021/11/22 10:20:17;;;;;;;17.47;12.90;;;7.20;99.90;;;;;;5034498;28;20498;-79
2021/11/22 10:22:47;;;;;;;15.03;11.67;;;6.80;99.90;;;;;;5024817;28;20893;-81
2021/11/22 10:25:44;;;;;;;15.23;11.47;;;6.70;99.90;;;;;;5029292;28;20983;-81
2021/11/22 10:28:14;;;;;;;15.40;10.67;;;6.80;99.90;;;;;;5028988;28;20533;-80
2021/11/22 10:30:43;;;;;;;15.73;11.70;;;6.80;99.90;;;;;;5022002;28;20452;-81
2021/11/22 10:33:11;;;;;;;10.77;7.43;;;6.80;99.90;;;;;;5019156;28;20561;-79
2021/11/22 10:35:41;;;;;;;11.73;8.67;;;6.80;99.90;;;;;;5025519;28;20577;-79
2021/11/22 10:38:12;;;;;;;9.90;7.20;;;6.70;99.90;;;;;;5028194;28;20468;-78
2021/11/22 10:40:41;;;;;;;12.43;7.90;;;6.60;99.90;;;;;;5029005;28;20538;-78
2021/11/22 10:43:09;;;;;;;11.23;7.90;;;6.50;99.90;;;;;;5027132;28;21047;-78
2021/11/22 10:45:39;;;;;;;12.97;8.60;;;6.60;99.90;;;;;;5025923;28;20883;-79
2021/11/22 10:48:11;;;;;;;13.97;9.03;;;6.60;99.90;;;;;;5026396;28;20457;-78
2021/11/22 10:50:48;;;;;;;12.57;9.53;;;6.60;99.90;;;;;;5033852;28;20811;-79
2021/11/22 10:53:15;;;;;;;12.20;8.60;;;6.50;99.90;;;;;;5030537;28;20482;-79
2021/11/22 10:55:47;;;;;;;34.43;10.50;;;6.50;99.90;;;;;;5035469;28;21024;-78
2021/11/22 10:58:29;;;;;;;25.93;9.83;;;6.50;99.90;;;;;;5026293;28;20446;-78
2021/11/22 11:00:57;;;;;;;18.80;9.03;;;6.70;99.90;;;;;;5013898;28;20547;-78
2021/11/22 11:03:28;;;;;;;16.17;7.40;;;7.10;99.90;;;;;;5035181;28;20483;-79
2021/11/22 11:06:00;;;;;;;15.77;6.63;;;7.60;99.90;;;;;;5034547;28;20460;-78
2021/11/22 11:08:30;;;;;;;16.70;7.23;;;8.00;99.90;;;;;;5033061;28;20477;-78
2021/11/22 11:11:09;;;;;;;9.87;5.27;;;9.10;99.90;;;;;;5014666;28;20548;-78
2021/11/22 11:13:44;;;;;;;9.80;4.47;;;9.60;99.90;;;;;;5015528;28;20968;-79
2021/11/22 11:16:12;;;;;;;13.87;4.13;;;10.50;99.90;;;;;;5024565;28;20469;-79
2021/11/22 11:18:39;;;;;;;14.03;4.60;;;12.40;99.90;;;;;;5034544;28;20459;-79
2021/11/22 11:21:07;;;;;;;7.40;4.00;;;12.20;99.90;;;;;;5034053;28;20520;-79
2021/11/22 11:23:34;;;;;;;5.90;3.53;;;11.60;99.90;;;;;;5035012;28;20464;-78
2021/11/22 11:26:02;;;;;;;8.03;3.53;;;11.90;99.90;;;;;;5034021;28;20978;-79
2021/11/22 11:28:31;;;;;;;11.43;3.20;;;13.80;99.90;;;;;;5027454;28;20454;-79
2021/11/22 11:30:58;;;;;;;7.33;3.30;;;13.80;99.90;;;;;;5033959;28;20510;-78
2021/11/22 11:33:25;;;;;;;8.60;2.87;;;14.10;99.90;;;;;;5034834;28;20893;-79
2021/11/22 11:35:58;;;;;;;9.53;3.40;;;13.70;99.90;;;;;;5034421;28;20514;-79
2021/11/22 11:38:34;;;;;;;11.67;3.90;;;12.60;99.90;;;;;;5027483;28;20455;-79
2021/11/22 11:41:12;;;;;;;5.43;2.80;;;12.10;99.90;;;;;;5034256;28;20475;-80
2021/11/22 11:43:53;;;;;;;9.63;3.10;;;13.50;99.90;;;;;;5033591;28;20830;-79
2021/11/22 11:46:29;;;;;;;4.37;2.20;;;13.90;99.90;;;;;;5034023;28;20874;-78
2021/11/22 11:49:01;;;;;;;4.10;2.13;;;20.00;99.90;;;;;;5032707;28;20468;-78
2021/11/22 11:51:37;;;;;;;6.03;2.90;;;20.50;99.90;;;;;;5033710;28;20452;-78
2021/11/22 11:54:09;;;;;;;5.60;2.80;;;19.70;99.90;;;;;;5034706;28;20489;-79
2021/11/22 11:56:38;;;;;;;7.00;2.20;;;19.80;92.50;;;;;;5034079;28;20446;-78
2021/11/22 11:59:19;;;;;;;5.07;2.23;;;19.20;93.30;;;;;;5031029;28;20449;-78
2021/11/22 12:01:58;;;;;;;7.40;2.53;;;18.20;90.80;;;;;;5034905;28;20964;-78
2021/11/22 12:04:25;;;;;;;4.43;1.93;;;17.10;91.10;;;;;;5035580;28;20557;-77
2021/11/22 12:06:53;;;;;;;5.60;2.23;;;16.90;92.10;;;;;;5033379;28;20476;-77
2021/11/22 12:09:37;;;;;;;5.00;1.90;;;16.50;92.80;;;;;;5033806;28;20852;-77
2021/11/22 12:12:23;;;;;;;4.60;1.80;;;16.50;95.80;;;;;;5033206;28;20537;-77
2021/11/22 12:14:52;;;;;;;3.80;1.60;;;16.60;90.80;;;;;;5032891;28;20908;-76
2021/11/22 12:17:51;;;;;;;8.27;1.80;;;16.50;93.70;;;;;;5032090;28;20528;-76
2021/11/22 12:20:41;;;;;;;6.03;1.97;;;14.50;94.80;;;;;;5011981;28;20473;-77
2021/11/22 12:23:11;;;;;;;9.97;2.23;;;13.70;99.90;;;;;;5024147;28;21011;-78
2021/11/22 12:25:46;;;;;;;8.03;2.47;;;13.10;99.80;;;;;;5033459;28;20980;-78
2021/11/22 12:28:34;;;;;;;5.50;2.47;;;12.00;99.90;;;;;;5023255;28;20888;-79
2021/11/22 12:31:05;;;;;;;7.03;2.63;;;11.60;99.90;;;;;;5018070;28;20525;-78
2021/11/22 12:33:38;;;;;;;4.90;1.90;;;10.80;99.90;;;;;;5033406;28;20454;-78
2021/11/22 12:36:07;;;;;;;5.50;2.50;;;10.40;99.90;;;;;;5034112;28;20529;-79
2021/11/22 12:38:36;;;;;;;6.37;2.50;;;10.20;99.90;;;;;;5032816;28;20486;-79
2021/11/22 12:41:07;;;;;;;5.50;2.30;;;9.80;99.90;;;;;;5031648;28;20983;-78
2021/11/22 12:43:40;;;;;;;7.67;2.87;;;9.10;99.90;;;;;;5032018;28;20591;-79
2021/11/22 12:46:09;;;;;;;6.93;2.63;;;9.20;99.90;;;;;;5034035;28;20546;-78
2021/11/22 12:48:38;;;;;;;7.30;3.23;;;9.20;99.90;;;;;;5018108;28;20477;-79
2021/11/22 12:51:08;;;;;;;17.50;3.17;;;9.10;99.90;;;;;;5032246;28;20524;-79
2021/11/22 12:53:36;;;;;;;8.77;2.80;;;8.90;99.90;;;;;;5032106;28;20470;-79